sensor_id;sensor_type;location;lat;lon;timestamp;temperature;humidity
51175;DHT22;37240;50.104;20.010;2023-03-24T00:01:32;17.10;74.30
51175;DHT22;37240;50.104;20.010;2023-03-24T00:06:33;17.10;74.00
51175;DHT22;37240;50.104;20.010;2023-03-24T00:11:33;17.10;74.20
51175;DHT22;37240;50.104;20.010;2023-03-24T00:16:34;17.10;74.60
51175;DHT22;37240;50.104;20.010;2023-03-24T00:21:34;17.00;76.30
51175;DHT22;37240;50.104;20.010;2023-03-24T00:26:37;16.90;77.90
51175;DHT22;37240;50.104;20.010;2023-03-24T00:31:37;16.80;78.90
51175;DHT22;37240;50.104;20.010;2023-03-24T00:36:38;16.70;79.60
51175;DHT22;37240;50.104;20.010;2023-03-24T00:41:40;16.60;80.50
51175;DHT22;37240;50.104;20.010;2023-03-24T00:46:40;16.60;80.80
51175;DHT22;37240;50.104;20.010;2023-03-24T00:51:41;16.60;80.50
51175;DHT22;37240;50.104;20.010;2023-03-24T00:56:42;16.60;80.60
51175;DHT22;37240;50.104;20.010;2023-03-24T01:01:42;16.50;80.20
51175;DHT22;37240;50.104;20.010;2023-03-24T01:06:43;16.60;80.40
51175;DHT22;37240;50.104;20.010;2023-03-24T01:11:43;16.60;80.70
51175;DHT22;37240;50.104;20.010;2023-03-24T01:16:44;16.50;80.70
51175;DHT22;37240;50.104;20.010;2023-03-24T01:21:44;16.50;80.90
51175;DHT22;37240;50.104;20.010;2023-03-24T01:26:45;16.50;81.00
51175;DHT22;37240;50.104;20.010;2023-03-24T01:31:45;16.50;81.10
51175;DHT22;37240;50.104;20.010;2023-03-24T01:36:46;16.50;81.30
51175;DHT22;37240;50.104;20.010;2023-03-24T01:41:47;16.40;81.60
51175;DHT22;37240;50.104;20.010;2023-03-24T01:46:47;16.40;81.50
51175;DHT22;37240;50.104;20.010;2023-03-24T01:51:51;16.40;81.80
51175;DHT22;37240;50.104;20.010;2023-03-24T01:57:09;16.40;81.70
51175;DHT22;37240;50.104;20.010;2023-03-24T02:02:12;16.40;81.80
51175;DHT22;37240;50.104;20.010;2023-03-24T02:12:41;16.50;81.60
51175;DHT22;37240;50.104;20.010;2023-03-24T02:28:29;16.70;80.30
51175;DHT22;37240;50.104;20.010;2023-03-24T02:39:47;16.70;79.80
51175;DHT22;37240;50.104;20.010;2023-03-24T02:50:05;16.80;78.90
51175;DHT22;37240;50.104;20.010;2023-03-24T03:00:45;16.80;80.40
51175;DHT22;37240;50.104;20.010;2023-03-24T03:05:53;16.70;81.90
51175;DHT22;37240;50.104;20.010;2023-03-24T03:10:56;16.60;82.50
51175;DHT22;37240;50.104;20.010;2023-03-24T03:16:04;16.50;82.20
51175;DHT22;37240;50.104;20.010;2023-03-24T03:21:11;16.50;82.50
51175;DHT22;37240;50.104;20.010;2023-03-24T03:26:15;16.50;82.60
51175;DHT22;37240;50.104;20.010;2023-03-24T03:31:21;16.40;83.90
51175;DHT22;37240;50.104;20.010;2023-03-24T03:36:31;16.40;83.00
51175;DHT22;37240;50.104;20.010;2023-03-24T03:41:33;16.50;83.10
51175;DHT22;37240;50.104;20.010;2023-03-24T03:46:35;16.50;82.80
51175;DHT22;37240;50.104;20.010;2023-03-24T03:51:35;16.50;83.30
51175;DHT22;37240;50.104;20.010;2023-03-24T03:56:37;16.40;84.20
51175;DHT22;37240;50.104;20.010;2023-03-24T04:01:37;16.40;84.60
51175;DHT22;37240;50.104;20.010;2023-03-24T04:06:40;16.40;85.70
51175;DHT22;37240;50.104;20.010;2023-03-24T04:11:48;16.30;84.60
51175;DHT22;37240;50.104;20.010;2023-03-24T04:28:00;16.30;85.10
51175;DHT22;37240;50.104;20.010;2023-03-24T04:38:13;16.20;86.90
51175;DHT22;37240;50.104;20.010;2023-03-24T04:43:17;16.10;86.90
51175;DHT22;37240;50.104;20.010;2023-03-24T04:48:19;16.10;87.50
51175;DHT22;37240;50.104;20.010;2023-03-24T04:53:19;16.10;87.70
51175;DHT22;37240;50.104;20.010;2023-03-24T04:58:21;16.00;88.50
51175;DHT22;37240;50.104;20.010;2023-03-24T05:03:22;16.00;89.10
51175;DHT22;37240;50.104;20.010;2023-03-24T05:08:22;15.90;89.90
51175;DHT22;37240;50.104;20.010;2023-03-24T05:13:23;15.90;90.40
51175;DHT22;37240;50.104;20.010;2023-03-24T05:18:23;16.00;90.00
51175;DHT22;37240;50.104;20.010;2023-03-24T05:23:24;16.10;89.70
51175;DHT22;37240;50.104;20.010;2023-03-24T05:28:25;16.10;90.90
51175;DHT22;37240;50.104;20.010;2023-03-24T05:33:25;16.00;90.60
51175;DHT22;37240;50.104;20.010;2023-03-24T05:38:26;16.00;90.90
51175;DHT22;37240;50.104;20.010;2023-03-24T05:43:26;16.00;92.30
51175;DHT22;37240;50.104;20.010;2023-03-24T05:48:27;16.00;93.90
51175;DHT22;37240;50.104;20.010;2023-03-24T05:53:28;15.90;93.00
51175;DHT22;37240;50.104;20.010;2023-03-24T05:58:28;15.90;92.70
51175;DHT22;37240;50.104;20.010;2023-03-24T06:03:29;15.80;93.50
51175;DHT22;37240;50.104;20.010;2023-03-24T06:08:29;15.80;94.90
51175;DHT22;37240;50.104;20.010;2023-03-24T06:13:30;15.90;93.90
51175;DHT22;37240;50.104;20.010;2023-03-24T06:18:30;15.90;93.60
51175;DHT22;37240;50.104;20.010;2023-03-24T06:23:31;15.90;94.30
51175;DHT22;37240;50.104;20.010;2023-03-24T06:28:32;15.90;93.80
51175;DHT22;37240;50.104;20.010;2023-03-24T06:33:32;15.90;93.70
51175;DHT22;37240;50.104;20.010;2023-03-24T06:38:33;16.00;93.40
51175;DHT22;37240;50.104;20.010;2023-03-24T06:43:34;16.10;93.50
51175;DHT22;37240;50.104;20.010;2023-03-24T06:48:34;16.30;94.10
51175;DHT22;37240;50.104;20.010;2023-03-24T06:53:35;16.40;94.60
51175;DHT22;37240;50.104;20.010;2023-03-24T06:58:35;16.50;94.70
51175;DHT22;37240;50.104;20.010;2023-03-24T07:03:37;16.70;94.80
51175;DHT22;37240;50.104;20.010;2023-03-24T07:08:37;16.90;94.80
51175;DHT22;37240;50.104;20.010;2023-03-24T07:13:38;17.00;94.60
51175;DHT22;37240;50.104;20.010;2023-03-24T07:18:38;17.30;94.30
51175;DHT22;37240;50.104;20.010;2023-03-24T07:23:39;17.60;93.90
51175;DHT22;37240;50.104;20.010;2023-03-24T07:28:39;17.90;93.20
51175;DHT22;37240;50.104;20.010;2023-03-24T07:33:40;18.30;92.40
51175;DHT22;37240;50.104;20.010;2023-03-24T07:38:41;18.70;91.90
51175;DHT22;37240;50.104;20.010;2023-03-24T07:43:41;19.00;91.30
51175;DHT22;37240;50.104;20.010;2023-03-24T07:48:42;19.10;90.90
51175;DHT22;37240;50.104;20.010;2023-03-24T07:53:42;19.10;90.70
51175;DHT22;37240;50.104;20.010;2023-03-24T07:58:43;19.10;90.80
51175;DHT22;37240;50.104;20.010;2023-03-24T08:03:43;19.20;90.70
51175;DHT22;37240;50.104;20.010;2023-03-24T08:08:44;19.20;90.60
51175;DHT22;37240;50.104;20.010;2023-03-24T08:13:45;19.30;90.10
51175;DHT22;37240;50.104;20.010;2023-03-24T08:18:45;19.40;89.10
51175;DHT22;37240;50.104;20.010;2023-03-24T08:23:46;19.40;87.90
51175;DHT22;37240;50.104;20.010;2023-03-24T08:28:46;19.50;87.90
51175;DHT22;37240;50.104;20.010;2023-03-24T08:33:47;19.60;86.40
51175;DHT22;37240;50.104;20.010;2023-03-24T08:38:47;19.80;86.00
51175;DHT22;37240;50.104;20.010;2023-03-24T08:43:48;19.90;85.20
51175;DHT22;37240;50.104;20.010;2023-03-24T08:48:48;20.10;83.50
51175;DHT22;37240;50.104;20.010;2023-03-24T08:53:49;20.40;81.80
51175;DHT22;37240;50.104;20.010;2023-03-24T08:58:50;20.50;78.60
51175;DHT22;37240;50.104;20.010;2023-03-24T09:03:50;20.70;77.80
51175;DHT22;37240;50.104;20.010;2023-03-24T09:08:51;20.80;75.50
51175;DHT22;37240;50.104;20.010;2023-03-24T09:13:52;21.00;75.30
51175;DHT22;37240;50.104;20.010;2023-03-24T09:18:53;21.20;74.10
51175;DHT22;37240;50.104;20.010;2023-03-24T09:23:53;21.50;71.30
51175;DHT22;37240;50.104;20.010;2023-03-24T09:28:54;21.80;68.90
51175;DHT22;37240;50.104;20.010;2023-03-24T09:33:55;21.90;66.60
51175;DHT22;37240;50.104;20.010;2023-03-24T09:38:56;22.00;65.50
51175;DHT22;37240;50.104;20.010;2023-03-24T09:44:06;22.00;64.80
51175;DHT22;37240;50.104;20.010;2023-03-24T09:49:16;22.00;64.50
51175;DHT22;37240;50.104;20.010;2023-03-24T09:59:40;22.10;62.60
51175;DHT22;37240;50.104;20.010;2023-03-24T10:04:40;22.20;62.30
51175;DHT22;37240;50.104;20.010;2023-03-24T10:09:42;22.40;60.30
51175;DHT22;37240;50.104;20.010;2023-03-24T10:19:59;22.80;60.10
51175;DHT22;37240;50.104;20.010;2023-03-24T10:25:20;23.00;59.50
51175;DHT22;37240;50.104;20.010;2023-03-24T10:30:27;23.20;58.10
51175;DHT22;37240;50.104;20.010;2023-03-24T10:35:34;23.40;57.50
51175;DHT22;37240;50.104;20.010;2023-03-24T10:40:35;23.60;56.80
51175;DHT22;37240;50.104;20.010;2023-03-24T10:45:38;23.70;56.60
51175;DHT22;37240;50.104;20.010;2023-03-24T10:50:43;23.90;56.30
51175;DHT22;37240;50.104;20.010;2023-03-24T10:55:44;23.90;54.90
51175;DHT22;37240;50.104;20.010;2023-03-24T11:00:46;24.00;54.30
51175;DHT22;37240;50.104;20.010;2023-03-24T11:05:47;24.00;54.20
51175;DHT22;37240;50.104;20.010;2023-03-24T11:10:48;24.00;52.60
51175;DHT22;37240;50.104;20.010;2023-03-24T11:20:58;24.00;51.30
51175;DHT22;37240;50.104;20.010;2023-03-24T11:26:14;23.90;50.40
51175;DHT22;37240;50.104;20.010;2023-03-24T11:31:22;23.90;50.20
51175;DHT22;37240;50.104;20.010;2023-03-24T11:41:29;23.90;49.80
51175;DHT22;37240;50.104;20.010;2023-03-24T11:46:30;24.00;49.20
51175;DHT22;37240;50.104;20.010;2023-03-24T11:51:34;23.90;48.80
51175;DHT22;37240;50.104;20.010;2023-03-24T11:56:44;23.90;48.20
51175;DHT22;37240;50.104;20.010;2023-03-24T12:12:35;23.90;48.20
51175;DHT22;37240;50.104;20.010;2023-03-24T12:23:25;23.90;47.90
51175;DHT22;37240;50.104;20.010;2023-03-24T12:39:29;24.10;46.40
51175;DHT22;37240;50.104;20.010;2023-03-24T12:54:54;24.10;45.50
51175;DHT22;37240;50.104;20.010;2023-03-24T13:00:03;24.10;45.50
51175;DHT22;37240;50.104;20.010;2023-03-24T13:05:07;24.20;45.40
51175;DHT22;37240;50.104;20.010;2023-03-24T13:10:24;24.20;44.60
51175;DHT22;37240;50.104;20.010;2023-03-24T13:15:44;24.20;44.30
51175;DHT22;37240;50.104;20.010;2023-03-24T13:20:49;24.00;44.10
51175;DHT22;37240;50.104;20.010;2023-03-24T13:31:06;23.90;44.20
51175;DHT22;37240;50.104;20.010;2023-03-24T13:41:55;23.80;44.60
51175;DHT22;37240;50.104;20.010;2023-03-24T13:47:02;23.70;44.70
51175;DHT22;37240;50.104;20.010;2023-03-24T13:52:05;23.60;45.10
51175;DHT22;37240;50.104;20.010;2023-03-24T13:57:19;23.60;45.50
51175;DHT22;37240;50.104;20.010;2023-03-24T14:02:38;23.60;46.20
51175;DHT22;37240;50.104;20.010;2023-03-24T14:23:48;23.40;47.50
51175;DHT22;37240;50.104;20.010;2023-03-24T14:28:51;23.30;47.60
51175;DHT22;37240;50.104;20.010;2023-03-24T14:38:52;23.00;48.00
51175;DHT22;37240;50.104;20.010;2023-03-24T14:44:00;23.00;48.30
51175;DHT22;37240;50.104;20.010;2023-03-24T14:49:26;23.00;48.50
51175;DHT22;37240;50.104;20.010;2023-03-24T15:05:27;22.80;48.50
51175;DHT22;37240;50.104;20.010;2023-03-24T15:11:17;22.90;48.30
51175;DHT22;37240;50.104;20.010;2023-03-24T15:16:00;22.80;48.20
51175;DHT22;37240;50.104;20.010;2023-03-24T15:21:18;22.80;47.80
51175;DHT22;37240;50.104;20.010;2023-03-24T15:26:22;22.80;47.90
51175;DHT22;37240;50.104;20.010;2023-03-24T15:31:24;22.80;47.80
51175;DHT22;37240;50.104;20.010;2023-03-24T15:36:25;22.80;48.40
51175;DHT22;37240;50.104;20.010;2023-03-24T15:41:27;22.80;48.00
51175;DHT22;37240;50.104;20.010;2023-03-24T15:46:29;22.70;47.90
51175;DHT22;37240;50.104;20.010;2023-03-24T15:51:50;22.60;48.00
51175;DHT22;37240;50.104;20.010;2023-03-24T16:02:04;22.50;48.80
51175;DHT22;37240;50.104;20.010;2023-03-24T16:07:21;22.40;49.00
51175;DHT22;37240;50.104;20.010;2023-03-24T16:12:22;22.40;49.70
51175;DHT22;37240;50.104;20.010;2023-03-24T16:17:22;22.30;49.80
51175;DHT22;37240;50.104;20.010;2023-03-24T16:22:23;22.20;50.20
51175;DHT22;37240;50.104;20.010;2023-03-24T16:27:23;22.20;50.40
51175;DHT22;37240;50.104;20.010;2023-03-24T16:32:24;22.10;50.50
51175;DHT22;37240;50.104;20.010;2023-03-24T16:37:24;22.10;50.60
51175;DHT22;37240;50.104;20.010;2023-03-24T16:42:25;22.00;50.80
51175;DHT22;37240;50.104;20.010;2023-03-24T16:47:25;21.90;51.10
51175;DHT22;37240;50.104;20.010;2023-03-24T16:52:26;21.70;51.50
51175;DHT22;37240;50.104;20.010;2023-03-24T16:57:26;21.70;52.10
51175;DHT22;37240;50.104;20.010;2023-03-24T17:02:27;21.60;51.70
51175;DHT22;37240;50.104;20.010;2023-03-24T17:07:27;21.50;52.80
51175;DHT22;37240;50.104;20.010;2023-03-24T17:12:29;21.30;52.90
51175;DHT22;37240;50.104;20.010;2023-03-24T17:17:29;21.20;53.70
51175;DHT22;37240;50.104;20.010;2023-03-24T17:22:30;21.00;54.90
51175;DHT22;37240;50.104;20.010;2023-03-24T17:27:30;20.90;56.20
51175;DHT22;37240;50.104;20.010;2023-03-24T17:32:32;20.90;57.10
51175;DHT22;37240;50.104;20.010;2023-03-24T17:37:33;20.80;57.50
51175;DHT22;37240;50.104;20.010;2023-03-24T17:42:33;20.70;57.70
51175;DHT22;37240;50.104;20.010;2023-03-24T17:47:34;20.60;58.10
51175;DHT22;37240;50.104;20.010;2023-03-24T17:52:36;20.60;58.40
51175;DHT22;37240;50.104;20.010;2023-03-24T17:57:36;20.40;58.70
51175;DHT22;37240;50.104;20.010;2023-03-24T18:02:38;20.30;59.40
51175;DHT22;37240;50.104;20.010;2023-03-24T18:07:39;20.20;60.90
51175;DHT22;37240;50.104;20.010;2023-03-24T18:12:40;20.00;63.20
51175;DHT22;37240;50.104;20.010;2023-03-24T18:17:40;19.90;64.40
51175;DHT22;37240;50.104;20.010;2023-03-24T18:22:41;19.80;65.50
51175;DHT22;37240;50.104;20.010;2023-03-24T18:27:42;19.70;66.90
51175;DHT22;37240;50.104;20.010;2023-03-24T18:32:42;19.60;67.90
51175;DHT22;37240;50.104;20.010;2023-03-24T18:37:43;19.60;69.50
51175;DHT22;37240;50.104;20.010;2023-03-24T18:42:44;19.60;71.80
51175;DHT22;37240;50.104;20.010;2023-03-24T18:47:45;19.40;73.80
51175;DHT22;37240;50.104;20.010;2023-03-24T18:52:45;19.40;74.90
51175;DHT22;37240;50.104;20.010;2023-03-24T18:57:46;19.20;76.30
51175;DHT22;37240;50.104;20.010;2023-03-24T19:02:47;19.10;78.10
51175;DHT22;37240;50.104;20.010;2023-03-24T19:07:47;19.10;78.70
51175;DHT22;37240;50.104;20.010;2023-03-24T19:12:48;19.00;79.90
51175;DHT22;37240;50.104;20.010;2023-03-24T19:17:48;18.90;79.70
51175;DHT22;37240;50.104;20.010;2023-03-24T19:22:49;18.80;80.70
51175;DHT22;37240;50.104;20.010;2023-03-24T19:27:49;18.80;81.80
51175;DHT22;37240;50.104;20.010;2023-03-24T19:32:50;18.80;83.60
51175;DHT22;37240;50.104;20.010;2023-03-24T19:37:50;18.70;86.30
51175;DHT22;37240;50.104;20.010;2023-03-24T19:42:51;18.70;87.20
51175;DHT22;37240;50.104;20.010;2023-03-24T19:47:51;18.70;87.00
51175;DHT22;37240;50.104;20.010;2023-03-24T19:52:52;18.60;86.90
51175;DHT22;37240;50.104;20.010;2023-03-24T19:57:52;18.50;88.00
51175;DHT22;37240;50.104;20.010;2023-03-24T20:02:53;18.50;87.80
51175;DHT22;37240;50.104;20.010;2023-03-24T20:07:54;18.40;88.20
51175;DHT22;37240;50.104;20.010;2023-03-24T20:12:54;18.40;88.40
51175;DHT22;37240;50.104;20.010;2023-03-24T20:17:55;18.40;88.40
51175;DHT22;37240;50.104;20.010;2023-03-24T20:22:56;18.30;88.90
51175;DHT22;37240;50.104;20.010;2023-03-24T20:27:56;18.30;89.10
51175;DHT22;37240;50.104;20.010;2023-03-24T20:32:57;18.20;89.20
51175;DHT22;37240;50.104;20.010;2023-03-24T20:37:57;18.20;88.80
51175;DHT22;37240;50.104;20.010;2023-03-24T20:42:58;18.20;89.50
51175;DHT22;37240;50.104;20.010;2023-03-24T20:47:58;18.10;89.30
51175;DHT22;37240;50.104;20.010;2023-03-24T20:52:59;18.10;89.80
51175;DHT22;37240;50.104;20.010;2023-03-24T20:58:00;18.10;89.80
51175;DHT22;37240;50.104;20.010;2023-03-24T21:03:00;18.10;90.10
51175;DHT22;37240;50.104;20.010;2023-03-24T21:08:01;18.10;90.10
51175;DHT22;37240;50.104;20.010;2023-03-24T21:13:02;18.00;90.20
51175;DHT22;37240;50.104;20.010;2023-03-24T21:18:03;18.10;90.40
51175;DHT22;37240;50.104;20.010;2023-03-24T21:23:03;18.00;90.40
51175;DHT22;37240;50.104;20.010;2023-03-24T21:28:04;18.00;90.60
51175;DHT22;37240;50.104;20.010;2023-03-24T21:33:04;18.00;91.40
51175;DHT22;37240;50.104;20.010;2023-03-24T21:38:05;17.90;91.50
51175;DHT22;37240;50.104;20.010;2023-03-24T21:43:05;17.90;92.10
51175;DHT22;37240;50.104;20.010;2023-03-24T21:48:06;17.80;92.10
51175;DHT22;37240;50.104;20.010;2023-03-24T21:53:07;17.70;92.70
51175;DHT22;37240;50.104;20.010;2023-03-24T21:58:07;17.60;93.20
51175;DHT22;37240;50.104;20.010;2023-03-24T22:03:08;17.50;93.90
51175;DHT22;37240;50.104;20.010;2023-03-24T22:08:09;17.40;94.10
51175;DHT22;37240;50.104;20.010;2023-03-24T22:13:09;17.40;94.70
51175;DHT22;37240;50.104;20.010;2023-03-24T22:18:10;17.30;95.10
51175;DHT22;37240;50.104;20.010;2023-03-24T22:23:10;17.30;95.40
51175;DHT22;37240;50.104;20.010;2023-03-24T22:28:11;17.20;95.30
51175;DHT22;37240;50.104;20.010;2023-03-24T22:33:11;17.10;95.60
51175;DHT22;37240;50.104;20.010;2023-03-24T22:38:12;17.00;95.70
51175;DHT22;37240;50.104;20.010;2023-03-24T22:43:12;16.90;96.10
51175;DHT22;37240;50.104;20.010;2023-03-24T22:48:13;17.00;96.20
51175;DHT22;37240;50.104;20.010;2023-03-24T22:53:14;16.90;96.10
51175;DHT22;37240;50.104;20.010;2023-03-24T22:58:14;16.90;96.10
51175;DHT22;37240;50.104;20.010;2023-03-24T23:03:15;16.90;96.10
51175;DHT22;37240;50.104;20.010;2023-03-24T23:08:15;16.90;96.30
51175;DHT22;37240;50.104;20.010;2023-03-24T23:13:16;16.70;96.40
51175;DHT22;37240;50.104;20.010;2023-03-24T23:18:17;16.60;96.60
51175;DHT22;37240;50.104;20.010;2023-03-24T23:23:17;16.50;96.70
51175;DHT22;37240;50.104;20.010;2023-03-24T23:28:18;16.40;97.00
51175;DHT22;37240;50.104;20.010;2023-03-24T23:33:19;16.40;97.10
51175;DHT22;37240;50.104;20.010;2023-03-24T23:38:20;16.30;97.10
51175;DHT22;37240;50.104;20.010;2023-03-24T23:43:20;16.30;97.10
51175;DHT22;37240;50.104;20.010;2023-03-24T23:48:22;16.20;97.20
51175;DHT22;37240;50.104;20.010;2023-03-24T23:53:23;16.10;97.40
51175;DHT22;37240;50.104;20.010;2023-03-24T23:58:25;16.10;97.50
